sensor_id;sensor_type;location;lat;lon;timestamp;pressure;altitude;pressure_sealevel;temperature;humidity
76201;BME280;64981;52.930;9.266;2023-04-01T00:00:06;99145.84;;;9.54;84.79
76201;BME280;64981;52.930;9.266;2023-04-01T00:02:31;99161.63;;;9.48;84.65
76201;BME280;64981;52.930;9.266;2023-04-01T00:04:57;99147.63;;;9.47;85.36
76201;BME280;64981;52.930;9.266;2023-04-01T00:07:23;99142.66;;;9.31;85.50
76201;BME280;64981;52.930;9.266;2023-04-01T00:09:48;99151.03;;;9.41;85.33
76201;BME280;64981;52.930;9.266;2023-04-01T00:12:14;99151.63;;;9.43;85.16
76201;BME280;64981;52.930;9.266;2023-04-01T00:14:39;99125.22;;;9.30;85.35
76201;BME280;64981;52.930;9.266;2023-04-01T00:17:05;99142.31;;;9.41;85.19
76201;BME280;64981;52.930;9.266;2023-04-01T00:19:31;99144.81;;;9.49;84.80
76201;BME280;64981;52.930;9.266;2023-04-01T00:21:58;99147.19;;;9.44;84.88
76201;BME280;64981;52.930;9.266;2023-04-01T00:24:24;99158.72;;;9.36;85.27
76201;BME280;64981;52.930;9.266;2023-04-01T00:26:49;99154.06;;;9.38;85.03
76201;BME280;64981;52.930;9.266;2023-04-01T00:29:15;99158.19;;;9.54;84.74
76201;BME280;64981;52.930;9.266;2023-04-01T00:31:40;99151.28;;;9.53;84.60
76201;BME280;64981;52.930;9.266;2023-04-01T00:34:06;99154.56;;;9.55;84.46
76201;BME280;64981;52.930;9.266;2023-04-01T00:36:32;99142.03;;;9.29;86.22
76201;BME280;64981;52.930;9.266;2023-04-01T00:38:57;99148.56;;;9.33;85.68
76201;BME280;64981;52.930;9.266;2023-04-01T00:41:24;99144.06;;;9.27;86.15
76201;BME280;64981;52.930;9.266;2023-04-01T00:43:52;99145.75;;;9.41;85.46
76201;BME280;64981;52.930;9.266;2023-04-01T00:46:18;99138.06;;;9.40;85.02
76201;BME280;64981;52.930;9.266;2023-04-01T00:48:51;99146.22;;;9.51;84.97
76201;BME280;64981;52.930;9.266;2023-04-01T00:51:23;99123.38;;;9.24;85.45
76201;BME280;64981;52.930;9.266;2023-04-01T00:53:56;99148.00;;;9.44;85.29
76201;BME280;64981;52.930;9.266;2023-04-01T00:56:32;99140.81;;;9.32;86.00
76201;BME280;64981;52.930;9.266;2023-04-01T00:59:04;99143.72;;;9.37;85.80
76201;BME280;64981;52.930;9.266;2023-04-01T01:01:34;99132.59;;;9.41;85.31
76201;BME280;64981;52.930;9.266;2023-04-01T01:04:01;99146.53;;;9.35;86.06
76201;BME280;64981;52.930;9.266;2023-04-01T01:06:42;99134.25;;;9.14;85.89
76201;BME280;64981;52.930;9.266;2023-04-01T01:09:41;99148.88;;;9.51;84.76
76201;BME280;64981;52.930;9.266;2023-04-01T01:15:15;99149.16;;;9.35;85.76
76201;BME280;64981;52.930;9.266;2023-04-01T01:18:09;99147.47;;;9.27;86.57
76201;BME280;64981;52.930;9.266;2023-04-01T01:21:06;99149.25;;;9.48;85.14
76201;BME280;64981;52.930;9.266;2023-04-01T01:23:57;99146.16;;;9.38;85.94
76201;BME280;64981;52.930;9.266;2023-04-01T01:35:40;99146.75;;;9.34;85.66
76201;BME280;64981;52.930;9.266;2023-04-01T01:38:13;99137.38;;;9.31;85.14
76201;BME280;64981;52.930;9.266;2023-04-01T01:40:44;99142.69;;;9.38;85.54
76201;BME280;64981;52.930;9.266;2023-04-01T01:43:16;99146.81;;;9.19;85.96
76201;BME280;64981;52.930;9.266;2023-04-01T01:45:48;99148.03;;;9.16;86.90
76201;BME280;64981;52.930;9.266;2023-04-01T01:48:16;99151.28;;;9.18;86.49
76201;BME280;64981;52.930;9.266;2023-04-01T01:50:45;99140.34;;;9.21;85.75
76201;BME280;64981;52.930;9.266;2023-04-01T01:53:12;99140.53;;;9.48;84.85
76201;BME280;64981;52.930;9.266;2023-04-01T01:55:42;99144.84;;;9.27;85.80
76201;BME280;64981;52.930;9.266;2023-04-01T01:58:22;99150.81;;;9.36;85.55
76201;BME280;64981;52.930;9.266;2023-04-01T02:00:55;99129.25;;;9.26;85.36
76201;BME280;64981;52.930;9.266;2023-04-01T02:03:24;99152.06;;;9.47;84.81
76201;BME280;64981;52.930;9.266;2023-04-01T02:05:55;99141.47;;;9.40;85.17
76201;BME280;64981;52.930;9.266;2023-04-01T02:08:26;99155.94;;;9.51;84.45
76201;BME280;64981;52.930;9.266;2023-04-01T02:11:00;99160.88;;;9.60;84.31
76201;BME280;64981;52.930;9.266;2023-04-01T02:13:43;99152.94;;;9.54;84.32
76201;BME280;64981;52.930;9.266;2023-04-01T02:16:18;99161.63;;;9.48;84.49
76201;BME280;64981;52.930;9.266;2023-04-01T02:18:48;99160.22;;;9.52;84.23
76201;BME280;64981;52.930;9.266;2023-04-01T02:21:17;99155.44;;;9.34;84.92
76201;BME280;64981;52.930;9.266;2023-04-01T02:23:46;99155.88;;;9.38;85.08
76201;BME280;64981;52.930;9.266;2023-04-01T02:26:14;99157.34;;;9.47;84.38
76201;BME280;64981;52.930;9.266;2023-04-01T02:28:42;99157.16;;;9.48;84.62
76201;BME280;64981;52.930;9.266;2023-04-01T02:31:11;99161.09;;;9.31;85.31
76201;BME280;64981;52.930;9.266;2023-04-01T02:33:39;99164.69;;;9.51;84.76
76201;BME280;64981;52.930;9.266;2023-04-01T02:36:06;99163.44;;;9.47;84.23
76201;BME280;64981;52.930;9.266;2023-04-01T02:38:36;99137.81;;;9.35;84.70
76201;BME280;64981;52.930;9.266;2023-04-01T02:41:02;99167.34;;;9.58;84.18
76201;BME280;64981;52.930;9.266;2023-04-01T02:43:28;99164.47;;;9.46;84.33
76201;BME280;64981;52.930;9.266;2023-04-01T02:45:54;99165.25;;;9.47;84.47
76201;BME280;64981;52.930;9.266;2023-04-01T02:48:20;99172.38;;;9.46;84.30
76201;BME280;64981;52.930;9.266;2023-04-01T02:50:46;99169.84;;;9.38;84.24
76201;BME280;64981;52.930;9.266;2023-04-01T02:53:11;99172.59;;;9.51;83.81
76201;BME280;64981;52.930;9.266;2023-04-01T02:55:38;99174.25;;;9.31;84.99
76201;BME280;64981;52.930;9.266;2023-04-01T02:58:03;99169.44;;;9.35;84.51
76201;BME280;64981;52.930;9.266;2023-04-01T03:00:29;99166.03;;;9.41;84.08
76201;BME280;64981;52.930;9.266;2023-04-01T03:02:55;99178.38;;;9.40;84.06
76201;BME280;64981;52.930;9.266;2023-04-01T03:05:22;99186.31;;;9.47;83.99
76201;BME280;64981;52.930;9.266;2023-04-01T03:07:48;99181.94;;;9.26;84.86
76201;BME280;64981;52.930;9.266;2023-04-01T03:10:14;99180.84;;;9.42;84.24
76201;BME280;64981;52.930;9.266;2023-04-01T03:12:40;99159.44;;;9.23;84.58
76201;BME280;64981;52.930;9.266;2023-04-01T03:15:06;99182.91;;;9.53;83.65
76201;BME280;64981;52.930;9.266;2023-04-01T03:17:34;99181.66;;;9.42;84.21
76201;BME280;64981;52.930;9.266;2023-04-01T03:20:00;99185.72;;;9.45;84.06
76201;BME280;64981;52.930;9.266;2023-04-01T03:22:25;99178.41;;;9.47;83.64
76201;BME280;64981;52.930;9.266;2023-04-01T03:24:51;99176.16;;;9.44;83.71
76201;BME280;64981;52.930;9.266;2023-04-01T03:27:17;99186.72;;;9.44;83.69
76201;BME280;64981;52.930;9.266;2023-04-01T03:29:43;99187.09;;;9.41;83.94
76201;BME280;64981;52.930;9.266;2023-04-01T03:32:08;99191.75;;;9.39;84.08
76201;BME280;64981;52.930;9.266;2023-04-01T03:34:34;99185.50;;;9.40;83.93
76201;BME280;64981;52.930;9.266;2023-04-01T03:37:00;99182.09;;;9.46;83.47
76201;BME280;64981;52.930;9.266;2023-04-01T03:39:25;99186.66;;;9.31;83.93
76201;BME280;64981;52.930;9.266;2023-04-01T03:41:51;99182.56;;;9.28;84.25
76201;BME280;64981;52.930;9.266;2023-04-01T03:44:17;99195.38;;;9.38;84.01
76201;BME280;64981;52.930;9.266;2023-04-01T03:46:42;99197.75;;;9.26;84.39
76201;BME280;64981;52.930;9.266;2023-04-01T03:49:09;99194.56;;;9.37;83.87
76201;BME280;64981;52.930;9.266;2023-04-01T03:51:43;99195.78;;;9.35;83.57
76201;BME280;64981;52.930;9.266;2023-04-01T03:54:10;99202.72;;;9.42;83.66
76201;BME280;64981;52.930;9.266;2023-04-01T03:56:36;99209.06;;;9.48;82.86
76201;BME280;64981;52.930;9.266;2023-04-01T03:59:05;99202.63;;;9.29;83.85
76201;BME280;64981;52.930;9.266;2023-04-01T04:01:31;99199.00;;;9.30;83.99
76201;BME280;64981;52.930;9.266;2023-04-01T04:03:57;99202.72;;;9.42;83.46
76201;BME280;64981;52.930;9.266;2023-04-01T04:06:24;99201.19;;;9.54;82.99
76201;BME280;64981;52.930;9.266;2023-04-01T04:08:49;99201.69;;;9.37;83.15
76201;BME280;64981;52.930;9.266;2023-04-01T04:11:15;99196.22;;;9.38;83.21
76201;BME280;64981;52.930;9.266;2023-04-01T04:13:42;99199.28;;;9.42;83.04
76201;BME280;64981;52.930;9.266;2023-04-01T04:16:08;99197.41;;;9.08;84.37
76201;BME280;64981;52.930;9.266;2023-04-01T04:18:35;99201.31;;;9.18;84.17
76201;BME280;64981;52.930;9.266;2023-04-01T04:21:01;99201.75;;;9.22;83.91
76201;BME280;64981;52.930;9.266;2023-04-01T04:23:26;99209.22;;;9.18;84.29
76201;BME280;64981;52.930;9.266;2023-04-01T04:25:57;99213.31;;;9.21;84.61
76201;BME280;64981;52.930;9.266;2023-04-01T04:28:24;99221.06;;;9.57;83.13
76201;BME280;64981;52.930;9.266;2023-04-01T04:30:49;99217.50;;;9.37;83.44
76201;BME280;64981;52.930;9.266;2023-04-01T04:33:15;99218.25;;;9.31;83.81
76201;BME280;64981;52.930;9.266;2023-04-01T04:35:41;99223.41;;;9.17;84.22
76201;BME280;64981;52.930;9.266;2023-04-01T04:38:06;99226.22;;;9.16;84.64
76201;BME280;64981;52.930;9.266;2023-04-01T04:40:32;99223.53;;;9.31;83.79
76201;BME280;64981;52.930;9.266;2023-04-01T04:42:57;99229.13;;;9.21;84.18
76201;BME280;64981;52.930;9.266;2023-04-01T04:45:23;99231.69;;;9.14;84.48
76201;BME280;64981;52.930;9.266;2023-04-01T04:47:49;99231.50;;;9.16;84.54
76201;BME280;64981;52.930;9.266;2023-04-01T04:50:14;99233.13;;;9.17;84.20
76201;BME280;64981;52.930;9.266;2023-04-01T04:52:40;99221.84;;;9.23;84.05
76201;BME280;64981;52.930;9.266;2023-04-01T04:55:06;99235.50;;;9.12;84.20
76201;BME280;64981;52.930;9.266;2023-04-01T04:57:31;99235.19;;;9.21;84.16
